Time,TemperatureF,DewpointF,PressureIn,WindDirection,WindDirectionDegrees,WindSpeedMPH,WindSpeedGustMPH,Humidity,HourlyPrecipIn,Conditions,Clouds,dailyrainin,SoftwareType,DateUTC
2013-09-28 00:13:00,58.0,44.0,30.05,SW,217,0.0,0.0,60,0.00,,,0.00,,2013-09-28 05:13:00,
2013-09-28 00:22:00,58.0,44.0,30.04,SW,217,0.0,1.0,59,0.00,,,0.00,,2013-09-28 05:22:00,
2013-09-28 00:53:00,57.0,43.0,30.04,SW,217,0.0,0.0,59,0.00,,,0.00,,2013-09-28 05:53:00,
2013-09-28 01:13:00,56.0,42.0,30.03,SW,217,0.0,1.0,59,0.00,,,0.00,,2013-09-28 06:13:00,
2013-09-28 01:22:00,57.0,43.0,30.03,SW,217,0.0,1.0,59,0.00,,,0.00,,2013-09-28 06:22:00,
2013-09-28 01:52:00,57.0,42.0,30.03,SW,217,0.0,1.0,58,0.00,,,0.00,,2013-09-28 06:52:00,
2013-09-28 02:12:00,57.0,42.0,30.03,SW,217,0.0,1.0,58,0.00,,,0.00,,2013-09-28 07:12:00,
2013-09-28 02:22:00,56.0,41.0,30.03,SW,217,0.0,0.0,58,0.00,,,0.00,,2013-09-28 07:22:00,
2013-09-28 02:52:00,56.0,41.0,30.02,SW,217,0.0,0.0,58,0.00,,,0.00,,2013-09-28 07:52:00,
2013-09-28 03:53:00,56.0,41.0,30.02,ESE,109,0.0,1.0,58,0.00,,,0.00,,2013-09-28 08:53:00,
2013-09-28 04:22:00,57.0,42.0,30.01,SW,236,0.0,2.0,58,0.00,,,0.00,,2013-09-28 09:22:00,
2013-09-28 04:54:00,58.0,43.0,30.01,SSW,196,0.0,2.0,57,0.00,,,0.00,,2013-09-28 09:54:00,
2013-09-28 08:52:00,60.0,44.0,30.01,South,173,0.0,5.0,56,0.00,,,0.00,,2013-09-28 13:52:00,
2013-09-28 09:12:00,61.0,45.0,30.01,SSW,213,1.0,9.0,55,0.00,,,0.00,,2013-09-28 14:12:00,
2013-09-28 09:21:00,62.0,46.0,30.01,SSW,192,2.0,9.0,55,0.00,,,0.00,,2013-09-28 14:21:00,
2013-09-28 09:52:00,65.0,48.0,30.00,SSW,192,6.0,9.0,54,0.00,,,0.00,,2013-09-28 14:52:00,
2013-09-28 10:12:00,66.0,48.0,29.99,SSE,162,0.0,11.0,53,0.00,,,0.00,,2013-09-28 15:12:00,
2013-09-28 10:23:00,68.0,50.0,29.98,SSW,199,7.0,14.0,53,0.00,,,0.00,,2013-09-28 15:23:00,
2013-09-28 10:54:00,70.0,53.0,29.98,SSW,209,6.0,12.0,55,0.00,,,0.00,,2013-09-28 15:54:00,
2013-09-28 11:14:00,71.0,54.0,29.97,ESE,103,4.0,12.0,55,0.00,,,0.00,,2013-09-28 16:14:00,
2013-09-28 11:24:00,72.0,55.0,29.96,SSW,196,4.0,13.0,55,0.00,,,0.00,,2013-09-28 16:24:00,
2013-09-28 11:54:00,73.0,56.0,29.94,SW,221,5.0,12.0,56,0.00,,,0.00,,2013-09-28 16:54:00,
2013-09-28 12:13:00,74.0,57.0,29.93,South,182,9.0,21.0,56,0.00,,,0.00,,2013-09-28 17:13:00,
2013-09-28 12:23:00,74.0,57.0,29.92,South,187,7.0,18.0,56,0.00,,,0.00,,2013-09-28 17:23:00,
2013-09-28 12:52:00,75.0,58.0,29.90,South,190,7.0,13.0,56,0.00,,,0.00,,2013-09-28 17:52:00,
2013-09-28 13:12:00,76.0,59.0,29.90,WNW,296,3.0,14.0,56,0.00,,,0.00,,2013-09-28 18:12:00,
2013-09-28 13:22:00,77.0,60.0,29.88,SSE,158,7.0,16.0,56,0.00,,,0.00,,2013-09-28 18:22:00,
2013-09-28 13:42:00,77.0,60.0,29.87,South,176,6.0,14.0,55,0.00,,,0.00,,2013-09-28 18:42:00,
2013-09-28 13:52:00,78.0,61.0,29.86,South,175,3.0,12.0,55,0.00,,,0.00,,2013-09-28 18:52:00,
2013-09-28 14:11:00,79.0,61.0,29.85,South,180,11.0,21.0,55,0.00,,,0.00,,2013-09-28 19:11:00,
2013-09-28 14:21:00,79.0,61.0,29.85,SSE,158,12.0,21.0,54,0.00,,,0.00,,2013-09-28 19:21:00,
2013-09-28 14:52:00,79.0,61.0,29.84,SSW,213,9.0,28.0,55,0.00,,,0.00,,2013-09-28 19:52:00,
2013-09-28 15:12:00,79.0,61.0,29.84,SSE,157,12.0,21.0,55,0.00,,,0.00,,2013-09-28 20:12:00,
2013-09-28 15:22:00,79.0,61.0,29.83,South,189,8.0,27.0,55,0.00,,,0.00,,2013-09-28 20:22:00,
2013-09-28 15:43:00,80.0,62.0,29.83,SSE,166,9.0,23.0,55,0.00,,,0.00,,2013-09-28 20:43:00,
2013-09-28 15:53:00,79.0,61.0,29.82,South,178,9.0,21.0,55,0.00,,,0.00,,2013-09-28 20:53:00,
2013-09-28 16:12:00,79.0,61.0,29.81,SSW,194,12.0,24.0,55,0.00,,,0.00,,2013-09-28 21:12:00,
2013-09-28 16:23:00,78.0,61.0,29.81,SE,141,8.0,18.0,55,0.00,,,0.00,,2013-09-28 21:23:00,
2013-09-28 16:55:00,78.0,61.0,29.81,South,172,11.0,14.0,56,0.00,,,0.00,,2013-09-28 21:55:00,
2013-09-28 17:13:00,77.0,60.0,29.80,South,176,9.0,16.0,56,0.00,,,0.00,,2013-09-28 22:13:00,
2013-09-28 17:23:00,77.0,60.0,29.80,South,178,7.0,16.0,56,0.00,,,0.00,,2013-09-28 22:23:00,
2013-09-28 17:43:00,77.0,61.0,29.80,SSE,151,5.0,16.0,57,0.00,,,0.00,,2013-09-28 22:43:00,
2013-09-28 17:54:00,77.0,61.0,29.81,SSW,207,7.0,12.0,57,0.00,,,0.00,,2013-09-28 22:54:00,
2013-09-28 18:12:00,77.0,61.0,29.82,SSE,168,9.0,22.0,57,0.00,,,0.00,,2013-09-28 23:12:00,
2013-09-28 18:22:00,76.0,60.0,29.83,South,173,10.0,23.0,57,0.00,,,0.00,,2013-09-28 23:22:00,
2013-09-28 23:02:00,-999.0,-99.9,29.93,West,264,0.0,1.0,-999,-99.99,,,-99.99,,2013-09-29 04:02:00,